logo
Search for airport 
image banner adimage banner adimage banner ad
image banner ad

SKVU - Varsovia

Located in , Colombia

ICAO - , IATA -

Data provided by Airmate  

General information

Coordinates: N4°1'2" W75°9'27"
Elevation is 1361 feet MSL.
 
View others Airports in Tolima

Operational data

Special qualification required
Current time UTC:
Current local time:
Weather at : SKIB - Ibague-Perales ( 45 km )
METAR: SKIB 141600Z 15007KT 9999 SCT030 BKN100 28/20 Q1020
View NOTAMs / SUP AIP / TFR affecting this airport [VIEW]
Communications frequencies: [VIEW]

Runways:

Airport contact information

Address: Colombia

Satellite view of SKVU